createdAt,value
2019-06-26T00:00:20.270Z,7.80
2019-06-26T00:02:50.681Z,10.72
2019-06-26T00:05:20.028Z,8.25
2019-06-26T00:07:50.646Z,9.25
2019-06-26T00:10:21.313Z,11.63
2019-06-26T00:12:51.397Z,8.23
2019-06-26T00:15:21.364Z,8.35
2019-06-26T00:17:51.488Z,10.75
2019-06-26T00:20:22.756Z,9.78
2019-06-26T00:22:52.747Z,10.65
2019-06-26T00:25:22.744Z,8.73
2019-06-26T00:27:53.100Z,9.10
2019-06-26T00:30:23.108Z,8.05
2019-06-26T00:32:53.426Z,8.18
2019-06-26T00:35:23.449Z,8.55
2019-06-26T00:37:54.831Z,8.28
2019-06-26T00:40:24.849Z,10.13
2019-06-26T00:42:54.503Z,8.98
2019-06-26T00:45:24.546Z,12.00
2019-06-26T00:47:55.200Z,8.35
2019-06-26T00:50:25.914Z,8.10
2019-06-26T00:52:56.270Z,8.08
2019-06-26T00:55:25.924Z,8.98
2019-06-26T00:57:56.237Z,8.03
2019-06-26T01:00:32.415Z,9.15
2019-06-26T01:03:02.089Z,8.23
2019-06-26T01:05:31.749Z,8.25
2019-06-26T01:08:02.139Z,8.28
2019-06-26T01:10:32.496Z,9.78
2019-06-26T01:13:02.560Z,8.73
2019-06-26T01:15:33.194Z,8.10
2019-06-26T01:18:03.274Z,10.10
2019-06-26T01:20:33.396Z,9.65
2019-06-26T01:23:03.595Z,11.53
2019-06-26T01:25:33.623Z,12.20
2019-06-26T01:28:03.348Z,11.33
2019-06-26T01:30:33.386Z,12.20
2019-06-26T01:33:04.062Z,11.45
2019-06-26T01:35:34.710Z,9.85
2019-06-26T01:38:04.625Z,10.82
2019-06-26T01:40:34.319Z,10.63
2019-06-26T01:43:04.348Z,11.22
2019-06-26T01:45:34.671Z,10.60
2019-06-26T01:48:05.126Z,10.60
2019-06-26T01:50:35.793Z,11.00
2019-06-26T01:53:06.451Z,12.03
2019-06-26T01:55:36.879Z,13.00
2019-06-26T01:58:07.323Z,9.55
2019-06-26T02:00:37.328Z,11.00
2019-06-26T02:03:07.021Z,9.50
2019-06-26T02:05:37.061Z,11.35
2019-06-26T02:08:07.379Z,10.95
2019-06-26T02:10:37.504Z,10.82
2019-06-26T02:13:07.846Z,8.48
2019-06-26T02:15:38.264Z,10.15
2019-06-26T02:18:27.225Z,11.40
2019-06-26T02:20:56.514Z,7.92
2019-06-26T02:23:26.776Z,6.90
2019-06-26T02:25:57.196Z,12.43
2019-06-26T02:28:27.291Z,7.05
2019-06-26T02:30:56.919Z,6.85
2019-06-26T02:33:27.301Z,6.62
2019-06-26T02:35:57.193Z,7.37
2019-06-26T02:38:27.475Z,8.25
2019-06-26T02:40:57.667Z,8.95
2019-06-26T02:43:27.710Z,8.55
2019-06-26T02:45:57.740Z,7.37
2019-06-26T02:48:28.060Z,6.83
2019-06-26T02:50:57.775Z,6.85
2019-06-26T02:53:27.355Z,8.43
2019-06-26T02:55:57.015Z,7.47
2019-06-26T02:58:27.175Z,7.92
2019-06-26T03:00:57.193Z,9.35
2019-06-26T03:03:27.218Z,7.75
2019-06-26T03:05:56.835Z,8.23
2019-06-26T03:08:26.559Z,8.58
2019-06-26T03:10:56.246Z,7.47
2019-06-26T03:13:26.255Z,7.40
2019-06-26T03:15:56.310Z,8.10
2019-06-26T03:18:27.056Z,8.73
2019-06-26T03:20:57.836Z,7.50
2019-06-26T03:23:27.523Z,8.70
2019-06-26T03:25:57.827Z,7.42
2019-06-26T03:28:28.518Z,10.00
2019-06-26T03:30:58.944Z,8.00
2019-06-26T03:33:28.278Z,8.33
2019-06-26T03:35:58.360Z,8.60
2019-06-26T03:38:28.407Z,11.48
2019-06-26T03:40:59.119Z,7.92
2019-06-26T03:43:29.127Z,8.18
2019-06-26T03:45:59.936Z,7.83
2019-06-26T03:48:29.931Z,8.38
2019-06-26T03:50:59.904Z,7.28
2019-06-26T03:53:29.617Z,13.40
2019-06-26T03:55:59.967Z,9.55
2019-06-26T03:58:30.245Z,7.35
2019-06-26T04:01:00.662Z,8.70
2019-06-26T04:03:31.062Z,10.08
2019-06-26T04:06:01.800Z,7.45
2019-06-26T04:08:32.123Z,7.00
2019-06-26T04:11:02.251Z,8.73
2019-06-26T04:13:32.301Z,9.75
2019-06-26T04:16:02.036Z,6.97
2019-06-26T04:18:32.389Z,11.97
2019-06-26T04:21:03.048Z,10.28
2019-06-26T04:23:33.193Z,9.73
2019-06-26T04:26:03.335Z,9.10
2019-06-26T04:28:34.106Z,8.35
2019-06-26T04:31:04.160Z,7.75
2019-06-26T04:33:34.750Z,8.58
2019-06-26T04:36:05.070Z,7.92
2019-06-26T04:38:35.555Z,7.60
2019-06-26T04:41:06.527Z,7.40
2019-06-26T04:43:36.914Z,7.22
2019-06-26T04:46:07.270Z,8.05
2019-06-26T04:48:37.646Z,12.25
2019-06-26T04:51:07.987Z,9.93
2019-06-26T04:53:38.503Z,7.15
2019-06-26T04:56:12.234Z,6.03
2019-06-26T04:58:42.181Z,7.30
2019-06-26T05:01:12.221Z,7.37
2019-06-26T05:03:43.029Z,8.78
2019-06-26T05:06:13.818Z,7.72
2019-06-26T05:08:43.740Z,7.22
2019-06-26T05:11:13.453Z,7.00
2019-06-26T05:13:44.133Z,6.05
2019-06-26T05:16:16.587Z,10.10
2019-06-26T05:18:55.707Z,9.05
2019-06-26T05:21:25.370Z,9.40
2019-06-26T05:23:55.542Z,6.95
2019-06-26T05:26:25.221Z,6.83
2019-06-26T05:28:55.540Z,7.30
2019-06-26T05:31:25.894Z,7.65
2019-06-26T05:33:56.414Z,7.28
2019-06-26T05:36:26.850Z,6.47
2019-06-26T05:38:56.860Z,7.65
2019-06-26T05:41:45.934Z,8.13
2019-06-26T05:44:17.631Z,10.50
2019-06-26T05:46:48.200Z,7.05
2019-06-26T05:49:18.288Z,8.55
2019-06-26T05:51:47.921Z,6.97
2019-06-26T05:54:17.679Z,12.13
2019-06-26T05:56:48.240Z,7.00
2019-06-26T05:59:18.797Z,7.42
2019-06-26T06:01:48.815Z,7.12
2019-06-26T06:04:18.913Z,8.63
2019-06-26T06:06:49.154Z,7.00
2019-06-26T06:09:19.450Z,7.03
2019-06-26T06:11:49.720Z,12.28
2019-06-26T06:14:19.939Z,7.78
2019-06-26T06:16:49.859Z,6.85
2019-06-26T06:19:20.388Z,7.90
2019-06-26T06:21:50.508Z,10.08
2019-06-26T06:24:20.856Z,8.10
2019-06-26T06:26:51.114Z,8.35
2019-06-26T06:29:20.741Z,7.78
2019-06-26T06:31:51.005Z,8.40
2019-06-26T06:34:20.911Z,9.85
2019-06-26T06:36:50.967Z,7.28
2019-06-26T06:39:21.504Z,7.47
2019-06-26T06:42:40.937Z,6.72
2019-06-26T06:56:24.275Z,6.95
2019-06-26T06:58:53.628Z,7.08
2019-06-26T07:01:23.248Z,6.80
2019-06-26T07:04:43.234Z,6.90
2019-06-26T07:07:12.915Z,6.62
2019-06-26T07:09:43.354Z,7.25
2019-06-26T07:12:13.351Z,7.00
2019-06-26T07:15:30.287Z,6.75
2019-06-26T07:18:48.339Z,7.08
2019-06-26T07:21:18.435Z,6.30
2019-06-26T07:23:49.853Z,6.85
2019-06-26T07:26:24.775Z,6.70
2019-06-26T07:28:54.860Z,8.65
2019-06-26T07:31:25.536Z,7.87
2019-06-26T07:33:56.067Z,10.38
2019-06-26T07:36:26.469Z,7.67
2019-06-26T07:38:57.251Z,8.00
2019-06-26T07:41:27.539Z,6.70
2019-06-26T07:43:58.223Z,10.00
2019-06-26T07:46:28.695Z,8.60
2019-06-26T07:48:58.689Z,7.12
2019-06-26T07:51:28.391Z,6.95
2019-06-26T07:53:59.051Z,7.72
2019-06-26T07:56:29.152Z,9.75
2019-06-26T07:59:02.180Z,7.83
2019-06-26T08:01:32.400Z,6.35
2019-06-26T08:04:02.959Z,6.65
2019-06-26T08:06:33.629Z,6.95
2019-06-26T08:09:03.661Z,11.03
2019-06-26T08:11:33.945Z,6.95
2019-06-26T08:14:04.018Z,7.65
2019-06-26T08:16:34.555Z,7.28
2019-06-26T08:19:05.034Z,8.40
2019-06-26T08:21:35.536Z,10.15
2019-06-26T08:24:05.989Z,7.15
2019-06-26T08:26:35.691Z,6.80
2019-06-26T08:29:06.053Z,7.03
2019-06-26T08:31:36.317Z,10.85
2019-06-26T08:34:06.573Z,8.93
2019-06-26T08:36:36.661Z,9.23
2019-06-26T08:39:08.003Z,7.80
2019-06-26T08:41:38.117Z,11.12
2019-06-26T08:44:07.839Z,7.97
2019-06-26T08:46:37.758Z,9.88
2019-06-26T08:49:24.379Z,8.00
2019-06-26T08:51:40.074Z,7.80
2019-06-26T08:54:10.334Z,9.53
2019-06-26T08:56:40.124Z,11.00
2019-06-26T08:59:10.517Z,9.90
2019-06-26T09:01:40.851Z,8.50
2019-06-26T09:04:11.387Z,8.10
2019-06-26T09:06:42.048Z,9.83
2019-06-26T09:09:12.421Z,16.48
2019-06-26T09:11:42.467Z,8.20
2019-06-26T09:14:13.118Z,7.78
2019-06-26T09:16:43.485Z,10.35
2019-06-26T09:19:13.506Z,7.62
2019-06-26T09:21:44.162Z,10.65
2019-06-26T09:24:14.092Z,8.83
2019-06-26T09:26:43.670Z,8.05
2019-06-26T09:29:14.331Z,8.70
2019-06-26T09:31:44.399Z,9.43
2019-06-26T09:34:14.013Z,9.63
2019-06-26T09:36:43.656Z,10.13
2019-06-26T09:39:13.643Z,9.10
2019-06-26T09:41:43.575Z,8.43
2019-06-26T09:44:14.206Z,8.25
2019-06-26T09:46:44.845Z,11.60
2019-06-26T09:49:15.528Z,9.85
2019-06-26T09:51:45.545Z,12.35
2019-06-26T09:54:15.197Z,9.30
2019-06-26T09:56:45.079Z,12.33
2019-06-26T09:59:15.260Z,9.75
2019-06-26T10:01:45.382Z,8.85
2019-06-26T10:04:15.157Z,10.65
2019-06-26T10:06:45.792Z,10.48
2019-06-26T10:09:15.456Z,10.32
2019-06-26T10:11:45.736Z,11.12
2019-06-26T10:14:15.681Z,9.80
2019-06-26T10:16:46.033Z,9.90
2019-06-26T10:19:16.034Z,12.07
2019-06-26T10:21:46.620Z,7.87
2019-06-26T10:24:16.983Z,9.75
2019-06-26T10:26:47.491Z,12.23
2019-06-26T10:29:17.883Z,10.65
2019-06-26T10:31:48.127Z,12.93
2019-06-26T10:34:18.246Z,13.05
2019-06-26T10:36:48.869Z,12.13
2019-06-26T10:39:19.680Z,9.45
2019-06-26T10:41:48.947Z,11.50
2019-06-26T10:44:19.260Z,9.45
2019-06-26T10:46:49.295Z,10.23
2019-06-26T10:49:27.093Z,9.70
2019-06-26T10:51:50.801Z,10.18
2019-06-26T10:54:21.225Z,9.75
2019-06-26T10:56:51.631Z,8.68
2019-06-26T10:59:22.016Z,10.38
2019-06-26T11:01:51.370Z,8.98
2019-06-26T11:04:21.629Z,8.55
2019-06-26T11:06:52.364Z,7.65
2019-06-26T11:09:21.982Z,8.53
2019-06-26T11:11:52.430Z,8.23
2019-06-26T11:14:22.106Z,8.83
2019-06-26T11:16:52.048Z,11.65
2019-06-26T11:19:22.564Z,13.25
2019-06-26T11:21:52.987Z,12.33
2019-06-26T11:24:23.654Z,11.08
2019-06-26T11:26:53.336Z,8.78
2019-06-26T11:29:23.060Z,11.05
2019-06-26T11:31:53.462Z,10.50
2019-06-26T11:34:23.483Z,11.75
2019-06-26T11:37:02.990Z,10.20
2019-06-26T11:39:25.229Z,8.03
2019-06-26T11:41:55.679Z,10.08
2019-06-26T11:44:26.003Z,11.08
2019-06-26T11:46:55.645Z,11.33
2019-06-26T11:49:26.014Z,12.30
2019-06-26T11:51:55.724Z,10.63
2019-06-26T11:54:25.096Z,11.65
2019-06-26T11:56:55.756Z,13.38
2019-06-26T11:59:26.185Z,11.22
2019-06-26T12:01:56.284Z,11.45
2019-06-26T12:04:26.333Z,11.25
2019-06-26T12:06:57.155Z,11.05
2019-06-26T12:09:27.461Z,12.60
2019-06-26T12:11:57.793Z,8.90
2019-06-26T12:14:28.641Z,11.68
2019-06-26T12:16:58.650Z,12.82
2019-06-26T12:19:28.358Z,13.93
2019-06-26T12:21:57.986Z,15.23
2019-06-26T12:24:28.366Z,12.63
2019-06-26T12:26:58.502Z,10.10
2019-06-26T12:29:32.658Z,10.00
2019-06-26T12:32:00.952Z,11.83
2019-06-26T12:34:31.452Z,15.03
2019-06-26T12:37:01.843Z,13.32
2019-06-26T12:39:32.515Z,8.90
2019-06-26T12:42:02.828Z,11.12
2019-06-26T12:44:33.471Z,10.48
2019-06-26T12:47:03.560Z,14.20
2019-06-26T12:49:34.254Z,10.80
2019-06-26T12:52:04.717Z,8.48
2019-06-26T12:54:34.370Z,9.63
2019-06-26T12:57:04.450Z,9.35
2019-06-26T12:59:34.463Z,10.53
2019-06-26T13:02:05.570Z,16.82
2019-06-26T13:04:34.949Z,10.53
2019-06-26T13:07:05.514Z,14.50
2019-06-26T13:09:41.150Z,11.90
2019-06-26T13:12:11.196Z,14.95
2019-06-26T13:14:48.022Z,12.40
2019-06-26T13:17:18.446Z,18.15
2019-06-26T13:19:48.845Z,9.75
2019-06-26T13:22:18.796Z,12.00
2019-06-26T13:24:50.748Z,10.70
2019-06-26T13:27:20.856Z,11.40
2019-06-26T13:29:51.271Z,12.25
2019-06-26T13:32:21.404Z,12.78
2019-06-26T13:34:51.298Z,13.70
2019-06-26T13:37:21.309Z,14.73
2019-06-26T13:39:50.630Z,16.00
2019-06-26T13:42:21.484Z,15.28
2019-06-26T13:44:51.211Z,17.27
2019-06-26T13:47:20.813Z,10.10
2019-06-26T13:49:50.127Z,15.43
2019-06-26T13:52:20.404Z,9.00
2019-06-26T13:54:50.884Z,13.22
2019-06-26T13:57:21.309Z,16.07
2019-06-26T13:59:51.298Z,14.23
2019-06-26T14:02:32.217Z,14.45
2019-06-26T14:05:03.385Z,13.93
2019-06-26T14:07:33.896Z,17.65
2019-06-26T14:10:11.412Z,13.32
2019-06-26T14:12:41.034Z,10.43
2019-06-26T14:15:33.221Z,18.25
2019-06-26T14:18:17.620Z,14.38
2019-06-26T14:20:47.481Z,12.23
2019-06-26T14:23:17.564Z,17.98
2019-06-26T14:25:47.731Z,19.85
2019-06-26T14:28:19.696Z,14.33
2019-06-26T14:31:18.369Z,13.45
2019-06-26T14:33:49.511Z,13.43
2019-06-26T14:36:23.013Z,10.72
2019-06-26T14:38:50.554Z,12.88
2019-06-26T14:41:21.010Z,17.48
2019-06-26T14:43:51.347Z,16.25
2019-06-26T14:46:20.999Z,25.25
2019-06-26T14:48:51.129Z,15.48
2019-06-26T14:51:21.903Z,15.83
2019-06-26T14:53:51.947Z,18.70
2019-06-26T14:56:21.988Z,15.48
2019-06-26T14:58:52.374Z,20.10
2019-06-26T15:01:22.344Z,14.13
2019-06-26T15:03:52.073Z,12.33
2019-06-26T15:06:22.439Z,13.35
2019-06-26T15:08:53.153Z,13.75
2019-06-26T15:11:23.224Z,17.02
2019-06-26T15:13:53.569Z,19.85
2019-06-26T15:16:24.076Z,13.80
2019-06-26T15:18:54.144Z,15.40
2019-06-26T15:21:24.720Z,12.88
2019-06-26T15:23:55.094Z,14.05
2019-06-26T15:26:27.822Z,18.98
2019-06-26T15:28:58.271Z,16.48
2019-06-26T15:31:27.940Z,15.85
2019-06-26T15:33:58.465Z,14.47
2019-06-26T15:36:29.305Z,16.07
2019-06-26T15:38:59.597Z,16.35
2019-06-26T15:41:30.162Z,14.30
2019-06-26T15:44:00.779Z,16.57
2019-06-26T15:46:30.795Z,12.58
2019-06-26T15:49:01.482Z,16.00
2019-06-26T15:51:31.923Z,16.37
2019-06-26T15:54:02.276Z,13.58
2019-06-26T15:56:31.953Z,17.15
2019-06-26T15:59:02.244Z,16.67
2019-06-26T16:01:32.649Z,16.42
2019-06-26T16:04:02.616Z,13.35
2019-06-26T16:06:32.842Z,14.95
2019-06-26T16:09:03.112Z,15.43
2019-06-26T16:11:33.106Z,23.25
2019-06-26T16:14:03.841Z,19.62
2019-06-26T16:16:35.519Z,18.30
2019-06-26T16:19:09.574Z,16.23
2019-06-26T16:21:39.966Z,15.50
2019-06-26T16:24:09.315Z,21.00
2019-06-26T16:26:39.653Z,17.02
2019-06-26T16:29:10.186Z,17.00
2019-06-26T16:31:41.009Z,13.50
2019-06-26T16:34:11.781Z,16.60
2019-06-26T16:36:42.574Z,16.12
2019-06-26T16:39:13.462Z,14.98
2019-06-26T16:41:43.409Z,14.10
2019-06-26T16:44:14.099Z,14.40
2019-06-26T16:46:44.415Z,18.65
2019-06-26T16:49:14.778Z,20.60
2019-06-26T16:51:44.732Z,17.87
2019-06-26T16:54:15.065Z,17.23
2019-06-26T16:56:45.378Z,20.25
2019-06-26T16:59:16.091Z,18.35
2019-06-26T17:01:45.752Z,17.55
2019-06-26T17:04:15.679Z,15.68
2019-06-26T17:06:46.273Z,16.20
2019-06-26T17:09:16.627Z,21.30
2019-06-26T17:11:46.741Z,14.90
2019-06-26T17:14:17.168Z,12.85
2019-06-26T17:16:47.688Z,19.10
2019-06-26T17:19:17.655Z,16.77
2019-06-26T17:21:48.005Z,17.87
2019-06-26T17:24:17.745Z,17.00
2019-06-26T17:26:47.763Z,20.92
2019-06-26T17:29:17.779Z,16.45
2019-06-26T17:31:48.544Z,15.10
2019-06-26T17:34:17.979Z,13.05
2019-06-26T17:36:48.074Z,12.18
2019-06-26T17:39:18.533Z,16.77
2019-06-26T17:41:48.826Z,13.28
2019-06-26T17:44:18.901Z,17.48
2019-06-26T17:46:49.501Z,13.38
2019-06-26T17:49:19.541Z,15.85
2019-06-26T17:51:49.463Z,14.33
2019-06-26T17:54:19.725Z,12.40
2019-06-26T17:56:49.418Z,13.98
2019-06-26T17:59:19.448Z,17.35
2019-06-26T18:01:49.786Z,19.52
2019-06-26T18:04:20.798Z,13.72
2019-06-26T18:06:51.258Z,18.55
2019-06-26T18:09:21.714Z,18.12
2019-06-26T18:11:51.680Z,15.25
2019-06-26T18:14:21.348Z,17.20
2019-06-26T18:16:51.869Z,15.83
2019-06-26T18:19:22.301Z,14.68
2019-06-26T18:21:51.999Z,19.10
2019-06-26T18:24:22.165Z,12.35
2019-06-26T18:26:52.177Z,15.45
2019-06-26T18:29:22.111Z,20.10
2019-06-26T18:31:52.709Z,14.70
2019-06-26T18:34:23.426Z,16.50
2019-06-26T18:36:53.463Z,14.35
2019-06-26T18:39:23.690Z,17.90
2019-06-26T18:41:54.042Z,14.07
2019-06-26T18:44:24.451Z,13.00
2019-06-26T18:46:54.788Z,15.75
2019-06-26T18:49:25.601Z,20.82
2019-06-26T18:51:55.527Z,21.68
2019-06-26T18:54:25.808Z,14.38
2019-06-26T18:56:55.647Z,15.60
2019-06-26T18:59:26.432Z,14.33
2019-06-26T19:01:57.742Z,16.70
2019-06-26T19:04:28.086Z,22.58
2019-06-26T19:06:57.816Z,14.25
2019-06-26T19:09:27.408Z,18.35
2019-06-26T19:11:57.411Z,16.17
2019-06-26T19:14:27.994Z,16.17
2019-06-26T19:16:58.110Z,11.78
2019-06-26T19:19:28.749Z,17.40
2019-06-26T19:21:59.179Z,18.35
2019-06-26T19:24:29.502Z,20.50
2019-06-26T19:26:59.348Z,12.25
2019-06-26T19:29:29.747Z,13.55
2019-06-26T19:32:00.131Z,16.37
2019-06-26T19:34:30.220Z,16.90
2019-06-26T19:37:00.916Z,18.10
2019-06-26T19:39:31.199Z,14.00
2019-06-26T19:42:01.239Z,18.30
2019-06-26T19:44:31.322Z,19.32
2019-06-26T19:47:01.455Z,11.88
2019-06-26T19:49:31.586Z,22.17
2019-06-26T19:52:02.082Z,11.35
2019-06-26T19:54:32.476Z,9.75
2019-06-26T19:57:03.352Z,16.95
2019-06-26T19:59:33.439Z,17.10
2019-06-26T20:02:03.838Z,17.52
2019-06-26T20:04:34.388Z,14.68
2019-06-26T20:07:05.164Z,16.80
2019-06-26T20:09:35.122Z,15.58
2019-06-26T20:12:04.946Z,14.18
2019-06-26T20:14:34.515Z,19.10
2019-06-26T20:17:04.982Z,15.18
2019-06-26T20:19:35.023Z,17.52
2019-06-26T20:22:04.713Z,13.40
2019-06-26T20:24:44.194Z,13.85
2019-06-26T20:27:05.845Z,22.60
2019-06-26T20:29:36.557Z,15.15
2019-06-26T20:32:07.465Z,14.73
2019-06-26T20:34:37.163Z,15.35
2019-06-26T20:37:07.502Z,19.30
2019-06-26T20:39:37.476Z,14.30
2019-06-26T20:42:07.535Z,14.30
2019-06-26T20:44:36.843Z,14.55
2019-06-26T20:47:07.064Z,17.17
2019-06-26T20:49:52.239Z,17.30
2019-06-26T20:52:08.863Z,16.82
2019-06-26T20:54:38.187Z,16.25
2019-06-26T20:57:08.532Z,17.48
2019-06-26T20:59:37.858Z,16.12
2019-06-26T21:02:08.586Z,12.65
2019-06-26T21:04:38.599Z,17.55
2019-06-26T21:07:08.892Z,18.73
2019-06-26T21:09:39.122Z,14.98
2019-06-26T21:12:08.751Z,14.00
2019-06-26T21:14:39.130Z,19.57
2019-06-26T21:17:09.155Z,13.75
2019-06-26T21:19:39.081Z,17.25
2019-06-26T21:22:12.558Z,19.17
2019-06-26T21:24:42.880Z,16.85
2019-06-26T21:27:12.909Z,14.83
2019-06-26T21:29:43.148Z,14.47
2019-06-26T21:32:13.738Z,14.35
2019-06-26T21:34:43.055Z,19.52
2019-06-26T21:37:13.425Z,16.55
2019-06-26T21:39:43.768Z,16.52
2019-06-26T21:42:14.032Z,12.75
2019-06-26T21:44:44.321Z,14.75
2019-06-26T21:47:14.059Z,14.98
2019-06-26T21:49:44.444Z,19.60
2019-06-26T21:52:15.352Z,16.07
2019-06-26T21:54:44.872Z,18.50
2019-06-26T21:57:14.517Z,16.50
2019-06-26T21:59:44.468Z,19.25
2019-06-26T22:02:14.147Z,17.82
2019-06-26T22:04:44.075Z,15.08
2019-06-26T22:07:14.038Z,16.57
2019-06-26T22:09:44.702Z,15.38
2019-06-26T22:12:15.183Z,15.53
2019-06-26T22:14:45.970Z,16.80
2019-06-26T22:17:15.912Z,14.68
2019-06-26T22:19:46.280Z,16.20
2019-06-26T22:22:15.915Z,17.15
2019-06-26T22:24:45.998Z,10.80
2019-06-26T22:27:16.541Z,14.53
2019-06-26T22:29:47.203Z,17.20
2019-06-26T22:32:16.797Z,17.42
2019-06-26T22:34:48.164Z,20.55
2019-06-26T22:37:18.615Z,20.15
2019-06-26T22:39:49.268Z,15.35
2019-06-26T22:42:19.310Z,18.42
2019-06-26T22:44:48.652Z,18.65
2019-06-26T22:47:19.079Z,19.37
2019-06-26T22:49:48.756Z,15.43
2019-06-26T22:52:18.849Z,17.70
2019-06-26T22:54:48.783Z,15.05
2019-06-26T22:57:18.463Z,16.25
2019-06-26T22:59:48.213Z,14.43
2019-06-26T23:02:18.955Z,14.78
2019-06-26T23:04:49.100Z,17.15
2019-06-26T23:07:19.067Z,21.05
2019-06-26T23:09:49.178Z,18.87
2019-06-26T23:12:20.230Z,15.45
2019-06-26T23:14:49.945Z,15.15
2019-06-26T23:17:19.652Z,18.70
2019-06-26T23:19:49.982Z,15.78
2019-06-26T23:22:19.997Z,14.85
2019-06-26T23:24:50.752Z,17.67
2019-06-26T23:27:21.886Z,15.80
2019-06-26T23:29:52.621Z,18.23
2019-06-26T23:32:23.201Z,16.73
2019-06-26T23:34:54.022Z,18.70
2019-06-26T23:37:24.704Z,16.55
2019-06-26T23:39:55.222Z,15.63
2019-06-26T23:42:25.872Z,18.82
2019-06-26T23:44:56.183Z,13.88
2019-06-26T23:47:26.426Z,14.60
2019-06-26T23:49:56.119Z,19.92
2019-06-26T23:52:26.134Z,17.80
2019-06-26T23:54:56.716Z,15.55
2019-06-26T23:57:26.671Z,15.53
2019-06-26T23:59:57.059Z,18.30
